Time;durP1;ratioP1;P1;durP2;ratioP2;P2;SDS_P1;SDS_P2;PMS_P1;PMS_P2;Temp;Humidity;BMP_temperature;BMP_pressure;BME280_temperature;BME280_humidity;BME280_pressure;Samples;Min_cycle;Max_cycle;Signal;HPM_P1;HPM_P2
2022/07/31 00:02:05;;;;;;;4.70;3.47;;;;;;;;;;4955961;29;20210;-74
2022/07/31 00:04:33;;;;;;;6.13;3.67;;;;;;;;;;4956462;29;20235;-74
2022/07/31 00:07:01;;;;;;;3.83;3.40;;;;;;;;;;4956334;29;20362;-74
2022/07/31 00:09:29;;;;;;;6.17;3.30;;;;;;;;;;4955146;28;20203;-74
2022/07/31 00:11:56;;;;;;;3.80;3.33;;;;;;;;;;4956192;29;20703;-74
2022/07/31 00:14:23;;;;;;;5.60;3.17;;;;;;;;;;4955963;29;20227;-75
2022/07/31 00:16:50;;;;;;;4.63;3.53;;;;;;;;;;4955928;29;20203;-75
2022/07/31 00:19:18;;;;;;;4.67;3.47;;;;;;;;;;4955996;29;20598;-74
2022/07/31 00:21:46;;;;;;;3.73;3.20;;;;;;;;;;4955770;29;20250;-74
2022/07/31 00:24:14;;;;;;;4.27;3.53;;;;;;;;;;4955936;29;20596;-74
2022/07/31 00:26:41;;;;;;;4.63;3.90;;;;;;;;;;4955915;29;20207;-74
2022/07/31 00:29:09;;;;;;;5.83;3.90;;;;;;;;;;4956084;29;20199;-75
2022/07/31 00:31:36;;;;;;;3.70;3.30;;;;;;;;;;4955518;29;20356;-75
2022/07/31 00:34:04;;;;;;;5.13;3.73;;;;;;;;;;4955727;29;20235;-74
2022/07/31 00:36:31;;;;;;;5.83;3.67;;;;;;;;;;4955729;29;20238;-75
2022/07/31 00:39:00;;;;;;;5.03;3.87;;;;;;;;;;4955713;29;20302;-74
2022/07/31 00:41:38;;;;;;;4.60;3.80;;;;;;;;;;4955661;29;20238;-75
2022/07/31 00:44:06;;;;;;;4.23;3.83;;;;;;;;;;4955724;29;20202;-75
2022/07/31 00:46:33;;;;;;;4.40;3.63;;;;;;;;;;4955238;29;20207;-75
2022/07/31 00:49:00;;;;;;;4.33;3.67;;;;;;;;;;4955490;29;20326;-75
2022/07/31 00:51:28;;;;;;;6.13;3.80;;;;;;;;;;4955522;29;20230;-75
2022/07/31 00:53:55;;;;;;;4.27;3.77;;;;;;;;;;4955331;29;20687;-75
2022/07/31 00:56:25;;;;;;;6.07;3.80;;;;;;;;;;4955177;29;20298;-75
2022/07/31 00:58:54;;;;;;;4.90;3.80;;;;;;;;;;4967766;28;20227;-74
2022/07/31 01:01:21;;;;;;;5.73;4.13;;;;;;;;;;4974448;28;20338;-74
2022/07/31 01:03:48;;;;;;;5.13;4.00;;;;;;;;;;4974601;28;20207;-74
2022/07/31 01:06:15;;;;;;;5.50;3.90;;;;;;;;;;4974632;28;20229;-74
2022/07/31 01:08:42;;;;;;;6.67;4.27;;;;;;;;;;4974285;28;20262;-74
2022/07/31 01:11:13;;;;;;;6.33;4.47;;;;;;;;;;4974599;28;20234;-74
2022/07/31 01:13:46;;;;;;;5.43;4.63;;;;;;;;;;4973932;28;20245;-74
2022/07/31 01:16:14;;;;;;;5.70;3.93;;;;;;;;;;4974138;28;20662;-74
2022/07/31 01:18:42;;;;;;;6.70;4.27;;;;;;;;;;4973983;28;20753;-74
2022/07/31 01:21:14;;;;;;;5.07;4.57;;;;;;;;;;4973808;28;20733;-74
2022/07/31 01:23:46;;;;;;;6.07;4.30;;;;;;;;;;4974024;28;20210;-74
2022/07/31 01:26:20;;;;;;;6.00;4.17;;;;;;;;;;4973945;28;20202;-74
2022/07/31 01:29:00;;;;;;;5.43;4.43;;;;;;;;;;4973525;28;20257;-74
2022/07/31 01:31:31;;;;;;;5.47;4.87;;;;;;;;;;4974370;28;20202;-74
2022/07/31 01:34:01;;;;;;;5.00;4.40;;;;;;;;;;4974042;28;21404;-74
2022/07/31 01:36:33;;;;;;;6.97;4.53;;;;;;;;;;4973877;28;20207;-74
2022/07/31 01:39:01;;;;;;;5.17;4.67;;;;;;;;;;4974049;28;20226;-74
2022/07/31 01:41:30;;;;;;;5.70;4.77;;;;;;;;;;4974034;28;20230;-74
2022/07/31 01:44:00;;;;;;;5.87;4.70;;;;;;;;;;4973479;28;20746;-74
2022/07/31 01:46:28;;;;;;;6.80;4.77;;;;;;;;;;4974034;28;20245;-74
2022/07/31 01:48:56;;;;;;;6.50;4.47;;;;;;;;;;4973749;28;20230;-74
2022/07/31 01:51:24;;;;;;;7.37;5.30;;;;;;;;;;4974071;28;20294;-74
2022/07/31 01:53:51;;;;;;;5.50;5.00;;;;;;;;;;4973955;28;20206;-74
2022/07/31 01:56:19;;;;;;;6.17;5.37;;;;;;;;;;4973713;28;20245;-74
2022/07/31 01:58:47;;;;;;;5.73;4.63;;;;;;;;;;4973005;28;20317;-74
2022/07/31 02:01:17;;;;;;;8.67;4.70;;;;;;;;;;4956144;28;20278;-74
2022/07/31 02:03:45;;;;;;;5.40;4.70;;;;;;;;;;4954643;29;20259;-74
2022/07/31 02:06:13;;;;;;;6.67;5.27;;;;;;;;;;4942926;29;20211;-74
2022/07/31 02:08:41;;;;;;;6.17;5.10;;;;;;;;;;4935141;29;20696;-74
2022/07/31 02:11:09;;;;;;;6.97;5.10;;;;;;;;;;4935257;29;20291;-74
2022/07/31 02:13:36;;;;;;;6.13;5.40;;;;;;;;;;4934675;29;20668;-74
2022/07/31 02:16:04;;;;;;;6.60;5.00;;;;;;;;;;4935297;29;20235;-74
2022/07/31 02:18:33;;;;;;;5.20;4.70;;;;;;;;;;4935084;29;20196;-74
2022/07/31 02:21:00;;;;;;;7.70;5.60;;;;;;;;;;4935194;29;20227;-74
2022/07/31 02:23:28;;;;;;;6.03;5.00;;;;;;;;;;4935140;29;20255;-74
2022/07/31 02:25:55;;;;;;;5.83;5.20;;;;;;;;;;4935088;29;20294;-74
2022/07/31 02:28:22;;;;;;;8.53;5.70;;;;;;;;;;4935102;29;20314;-74
2022/07/31 02:30:51;;;;;;;9.30;5.27;;;;;;;;;;4935051;29;20247;-74
2022/07/31 02:33:19;;;;;;;6.13;5.53;;;;;;;;;;4937948;29;20314;-74
2022/07/31 02:35:49;;;;;;;7.20;5.77;;;;;;;;;;4938936;29;20221;-74
2022/07/31 02:38:17;;;;;;;6.53;5.70;;;;;;;;;;4938711;29;20286;-74
2022/07/31 02:40:44;;;;;;;7.40;5.67;;;;;;;;;;4938401;29;20255;-74
2022/07/31 02:43:12;;;;;;;6.67;5.40;;;;;;;;;;4938765;29;20239;-74
2022/07/31 02:45:41;;;;;;;7.57;5.77;;;;;;;;;;4938512;29;20751;-74
2022/07/31 02:48:08;;;;;;;6.40;5.63;;;;;;;;;;4938584;29;20259;-74
2022/07/31 02:50:36;;;;;;;6.63;6.03;;;;;;;;;;4938342;29;20208;-74
2022/07/31 02:53:05;;;;;;;6.07;5.47;;;;;;;;;;4938577;29;20235;-74
2022/07/31 02:55:32;;;;;;;7.23;5.70;;;;;;;;;;4938054;29;20247;-74
2022/07/31 02:57:59;;;;;;;7.10;5.60;;;;;;;;;;4944303;29;20273;-74
2022/07/31 03:00:27;;;;;;;6.93;6.23;;;;;;;;;;4968361;28;20264;-74
2022/07/31 03:02:55;;;;;;;6.43;5.67;;;;;;;;;;4976530;28;20639;-74
2022/07/31 03:05:22;;;;;;;7.70;6.03;;;;;;;;;;4976642;28;20241;-74
2022/07/31 03:07:49;;;;;;;6.70;6.03;;;;;;;;;;4976591;28;20262;-74
2022/07/31 03:10:18;;;;;;;7.77;5.90;;;;;;;;;;4976298;28;20233;-74
2022/07/31 03:12:47;;;;;;;6.43;5.80;;;;;;;;;;4976471;28;20749;-74
2022/07/31 03:15:15;;;;;;;6.97;6.30;;;;;;;;;;4976269;28;20242;-74
2022/07/31 03:17:43;;;;;;;6.67;5.60;;;;;;;;;;4976578;28;20234;-74
2022/07/31 03:20:11;;;;;;;8.43;5.83;;;;;;;;;;4976462;28;20238;-74
2022/07/31 03:22:39;;;;;;;7.93;5.67;;;;;;;;;;4976182;28;20674;-74
2022/07/31 03:25:07;;;;;;;6.73;6.03;;;;;;;;;;4975954;28;20242;-74
2022/07/31 03:27:36;;;;;;;8.20;6.00;;;;;;;;;;4976048;28;20206;-74
2022/07/31 03:30:05;;;;;;;7.00;6.30;;;;;;;;;;4976283;28;20297;-74
2022/07/31 03:32:34;;;;;;;7.23;6.27;;;;;;;;;;4976206;28;20199;-74
2022/07/31 03:35:02;;;;;;;6.50;5.80;;;;;;;;;;4976112;28;20217;-74
2022/07/31 03:37:29;;;;;;;7.17;6.43;;;;;;;;;;4976116;28;20205;-74
2022/07/31 03:39:56;;;;;;;6.40;5.80;;;;;;;;;;4975829;28;20293;-74
2022/07/31 03:42:23;;;;;;;7.47;6.03;;;;;;;;;;4975717;28;20309;-74
2022/07/31 03:44:52;;;;;;;8.60;6.37;;;;;;;;;;4976029;28;20289;-74
2022/07/31 03:47:20;;;;;;;8.30;6.13;;;;;;;;;;4975886;28;20285;-74
2022/07/31 03:49:48;;;;;;;7.40;6.43;;;;;;;;;;4975899;28;20230;-74
2022/07/31 03:52:15;;;;;;;9.43;6.03;;;;;;;;;;4975849;28;20749;-74
2022/07/31 03:54:42;;;;;;;7.07;5.93;;;;;;;;;;4975342;28;20237;-74
2022/07/31 03:57:10;;;;;;;7.00;5.97;;;;;;;;;;4975563;28;20242;-74
2022/07/31 03:59:37;;;;;;;7.13;6.20;;;;;;;;;;4956199;28;20243;-74
2022/07/31 04:02:06;;;;;;;7.50;6.37;;;;;;;;;;4956351;29;20286;-74
2022/07/31 04:04:34;;;;;;;7.50;6.43;;;;;;;;;;4956473;29;20211;-74
2022/07/31 04:07:01;;;;;;;6.97;6.20;;;;;;;;;;4956236;29;20211;-74
2022/07/31 04:09:29;;;;;;;8.57;6.37;;;;;;;;;;4955710;29;20321;-74
2022/07/31 04:11:56;;;;;;;7.67;6.13;;;;;;;;;;4956347;29;20225;-74
2022/07/31 04:14:23;;;;;;;8.87;6.50;;;;;;;;;;4955942;29;20258;-74
2022/07/31 04:16:50;;;;;;;10.13;6.27;;;;;;;;;;4955951;29;20290;-74
2022/07/31 04:19:19;;;;;;;7.63;5.73;;;;;;;;;;4956129;29;20231;-74
2022/07/31 04:21:49;;;;;;;6.93;6.23;;;;;;;;;;4955517;29;20575;-74
2022/07/31 04:24:17;;;;;;;9.07;6.00;;;;;;;;;;4956189;29;20614;-74
2022/07/31 04:26:44;;;;;;;6.47;5.73;;;;;;;;;;4955706;29;20207;-74
2022/07/31 04:29:11;;;;;;;8.73;6.20;;;;;;;;;;4956207;29;20265;-74
2022/07/31 04:31:38;;;;;;;6.13;5.53;;;;;;;;;;4955715;29;20305;-74
2022/07/31 04:34:06;;;;;;;9.53;6.07;;;;;;;;;;4955643;29;20241;-74
2022/07/31 04:36:34;;;;;;;7.83;5.93;;;;;;;;;;4955567;29;20207;-74
2022/07/31 04:39:02;;;;;;;6.40;5.80;;;;;;;;;;4955740;29;20301;-74
2022/07/31 04:41:29;;;;;;;8.07;5.90;;;;;;;;;;4955631;29;20289;-74
2022/07/31 04:43:58;;;;;;;7.37;5.87;;;;;;;;;;4955549;29;20266;-74
2022/07/31 04:46:25;;;;;;;7.87;6.23;;;;;;;;;;4955678;29;20207;-74
2022/07/31 04:48:52;;;;;;;7.27;6.10;;;;;;;;;;4955325;29;20718;-74
2022/07/31 04:51:20;;;;;;;6.70;6.00;;;;;;;;;;4955028;29;20294;-74
2022/07/31 04:53:49;;;;;;;7.90;6.27;;;;;;;;;;4955173;29;20294;-74
2022/07/31 04:56:33;;;;;;;8.40;6.17;;;;;;;;;;4954687;29;20207;-74
2022/07/31 04:59:01;;;;;;;8.97;6.17;;;;;;;;;;4969011;28;20230;-74
2022/07/31 05:01:28;;;;;;;7.90;6.10;;;;;;;;;;4974300;28;20273;-74
2022/07/31 05:03:55;;;;;;;7.17;6.10;;;;;;;;;;4974524;28;20281;-74
2022/07/31 05:06:22;;;;;;;7.63;6.10;;;;;;;;;;4974272;28;20297;-74
2022/07/31 05:08:51;;;;;;;7.60;5.93;;;;;;;;;;4974262;28;20317;-74
2022/07/31 05:11:24;;;;;;;6.23;5.63;;;;;;;;;;4974532;28;20631;-74
2022/07/31 05:13:51;;;;;;;8.17;5.43;;;;;;;;;;4974208;28;20293;-74
2022/07/31 05:16:19;;;;;;;7.27;5.53;;;;;;;;;;4974217;28;20285;-74
2022/07/31 05:18:46;;;;;;;6.37;5.53;;;;;;;;;;4974281;28;20286;-74
2022/07/31 05:21:14;;;;;;;7.00;5.60;;;;;;;;;;4974108;28;20298;-74
2022/07/31 05:23:41;;;;;;;6.37;5.00;;;;;;;;;;4974306;28;20207;-74
2022/07/31 05:26:10;;;;;;;7.67;5.70;;;;;;;;;;4973988;28;20293;-74
2022/07/31 05:28:38;;;;;;;6.67;5.97;;;;;;;;;;4974360;28;20261;-74
2022/07/31 05:31:05;;;;;;;7.07;5.40;;;;;;;;;;4973983;28;20733;-74
2022/07/31 05:33:33;;;;;;;7.53;6.20;;;;;;;;;;4973875;28;20671;-74
2022/07/31 05:36:00;;;;;;;8.43;5.70;;;;;;;;;;4973538;28;20678;-74
2022/07/31 05:38:27;;;;;;;8.13;5.80;;;;;;;;;;4974242;28;20293;-74
2022/07/31 05:40:55;;;;;;;6.23;5.63;;;;;;;;;;4974056;28;20248;-74
2022/07/31 05:43:23;;;;;;;7.93;5.30;;;;;;;;;;4974189;28;20230;-74
2022/07/31 05:45:50;;;;;;;7.90;5.40;;;;;;;;;;4973843;28;20281;-74
2022/07/31 05:48:18;;;;;;;6.00;5.47;;;;;;;;;;4973693;28;20289;-74
2022/07/31 05:50:46;;;;;;;5.77;5.27;;;;;;;;;;4973437;28;20244;-74
2022/07/31 05:53:14;;;;;;;7.23;5.37;;;;;;;;;;4973852;28;20297;-74
2022/07/31 05:55:41;;;;;;;6.17;5.57;;;;;;;;;;4973942;28;20210;-74
2022/07/31 05:58:08;;;;;;;10.90;5.50;;;;;;;;;;4965976;28;20727;-74
2022/07/31 06:00:37;;;;;;;5.65;5.07;;;;;;;;;;4954308;29;20271;-74
2022/07/31 06:03:05;;;;;;;7.78;5.30;;;;;;;;;;4954592;29;20210;-74
2022/07/31 06:05:33;;;;;;;6.43;5.50;;;;;;;;;;4954216;28;20222;-74
2022/07/31 06:08:01;;;;;;;6.53;5.33;;;;;;;;;;4958887;29;20235;-74
2022/07/31 06:10:28;;;;;;;6.65;5.40;;;;;;;;;;4958175;29;20266;-74
2022/07/31 06:12:56;;;;;;;6.40;5.70;;;;;;;;;;4958386;29;20214;-74
2022/07/31 06:15:23;;;;;;;5.97;5.28;;;;;;;;;;4958295;29;20230;-74
2022/07/31 06:17:52;;;;;;;6.18;5.57;;;;;;;;;;4957815;29;20294;-74
2022/07/31 06:20:19;;;;;;;6.03;5.10;;;;;;;;;;4958280;29;20210;-74
2022/07/31 06:22:46;;;;;;;6.38;5.63;;;;;;;;;;4958343;29;20234;-74
2022/07/31 06:25:13;;;;;;;8.38;5.38;;;;;;;;;;4957946;29;20245;-74
2022/07/31 06:27:41;;;;;;;5.57;4.97;;;;;;;;;;4958061;29;20289;-74
2022/07/31 06:30:08;;;;;;;8.20;5.55;;;;;;;;;;4957937;29;20227;-74
2022/07/31 06:32:36;;;;;;;7.85;5.47;;;;;;;;;;4957748;29;20241;-74
2022/07/31 06:35:05;;;;;;;6.07;5.00;;;;;;;;;;4957834;29;20686;-73
2022/07/31 06:37:33;;;;;;;6.20;5.03;;;;;;;;;;4957892;29;20253;-73
2022/07/31 06:40:00;;;;;;;5.28;4.80;;;;;;;;;;4957781;29;20199;-74
2022/07/31 06:42:27;;;;;;;5.30;4.80;;;;;;;;;;4957706;29;20211;-74
2022/07/31 06:44:54;;;;;;;7.13;4.80;;;;;;;;;;4957574;29;20211;-73
2022/07/31 06:47:22;;;;;;;5.75;5.05;;;;;;;;;;4957371;29;20241;-73
2022/07/31 06:49:50;;;;;;;6.70;5.00;;;;;;;;;;4957879;29;20295;-73
2022/07/31 06:52:19;;;;;;;6.07;5.47;;;;;;;;;;4957733;29;20239;-74
2022/07/31 06:54:46;;;;;;;5.72;5.22;;;;;;;;;;4957502;29;20286;-73
2022/07/31 06:57:13;;;;;;;6.72;5.22;;;;;;;;;;4957454;29;20593;-73
2022/07/31 06:59:41;;;;;;;4.97;4.38;;;;;;;;;;4968866;28;20321;-74
2022/07/31 07:02:09;;;;;;;5.75;4.82;;;;;;;;;;4957028;29;20295;-73
2022/07/31 07:04:36;;;;;;;5.97;4.90;;;;;;;;;;4957383;29;20290;-73
2022/07/31 07:07:03;;;;;;;5.40;4.90;;;;;;;;;;4940382;29;20291;-73
2022/07/31 07:09:32;;;;;;;5.35;4.57;;;;;;;;;;4938133;29;20311;-74
2022/07/31 07:11:59;;;;;;;4.88;4.43;;;;;;;;;;4937981;29;20302;-74
2022/07/31 07:14:26;;;;;;;11.95;4.78;;;;;;;;;;4937913;29;20247;-73
2022/07/31 07:16:53;;;;;;;7.47;5.10;;;;;;;;;;4937829;29;20293;-74
2022/07/31 07:19:21;;;;;;;5.88;5.15;;;;;;;;;;4937513;29;20291;-74
2022/07/31 07:21:48;;;;;;;6.25;4.70;;;;;;;;;;4938022;29;20676;-74
2022/07/31 07:24:15;;;;;;;5.00;4.43;;;;;;;;;;4937680;29;20246;-73
2022/07/31 07:26:44;;;;;;;5.30;4.78;;;;;;;;;;4937671;29;20295;-74
2022/07/31 07:29:11;;;;;;;8.27;5.03;;;;;;;;;;4937566;29;20204;-74
2022/07/31 07:31:38;;;;;;;6.00;4.75;;;;;;;;;;4937471;29;20239;-73
2022/07/31 07:34:08;;;;;;;5.68;4.80;;;;;;;;;;4937677;29;20235;-74
2022/07/31 07:36:35;;;;;;;5.28;4.55;;;;;;;;;;4937225;29;20210;-74
2022/07/31 07:39:02;;;;;;;5.88;4.70;;;;;;;;;;4937683;29;20211;-73
2022/07/31 07:41:30;;;;;;;6.00;4.68;;;;;;;;;;4937475;29;20286;-74
2022/07/31 07:43:58;;;;;;;5.55;4.25;;;;;;;;;;4937690;29;20235;-73
2022/07/31 07:46:25;;;;;;;5.45;4.43;;;;;;;;;;4937187;29;20290;-73
2022/07/31 07:48:52;;;;;;;5.05;4.55;;;;;;;;;;4937194;29;20239;-74
2022/07/31 07:51:21;;;;;;;5.07;4.57;;;;;;;;;;4937440;29;20259;-73
2022/07/31 07:53:48;;;;;;;5.85;4.82;;;;;;;;;;4937273;29;20211;-73
2022/07/31 07:56:15;;;;;;;6.43;4.93;;;;;;;;;;4937192;29;20294;-74
2022/07/31 07:58:42;;;;;;;6.13;4.60;;;;;;;;;;4936973;29;20270;-74
2022/07/31 08:01:11;;;;;;;6.57;4.03;;;;;;;;;;4953173;29;20322;-73
2022/07/31 08:03:38;;;;;;;5.50;4.22;;;;;;;;;;4956192;29;20242;-74
2022/07/31 08:06:05;;;;;;;5.07;4.32;;;;;;;;;;4956197;29;20684;-73
2022/07/31 08:08:33;;;;;;;5.50;4.38;;;;;;;;;;4956437;29;20198;-74
2022/07/31 08:11:02;;;;;;;5.03;4.53;;;;;;;;;;4955977;29;20326;-74
2022/07/31 08:13:29;;;;;;;4.30;3.90;;;;;;;;;;4956000;29;20254;-74
2022/07/31 08:15:56;;;;;;;4.90;4.40;;;;;;;;;;4956057;29;20238;-73
2022/07/31 08:18:25;;;;;;;4.50;4.10;;;;;;;;;;4955784;29;20235;-74
2022/07/31 08:20:52;;;;;;;5.15;4.18;;;;;;;;;;4955585;29;20686;-74
2022/07/31 08:23:19;;;;;;;4.55;4.00;;;;;;;;;;4955868;29;20231;-74
2022/07/31 08:25:46;;;;;;;4.63;3.92;;;;;;;;;;4955988;29;20327;-74
2022/07/31 08:28:14;;;;;;;4.65;4.25;;;;;;;;;;4955532;29;20277;-74
2022/07/31 08:30:41;;;;;;;4.45;4.05;;;;;;;;;;4954849;28;20230;-74
2022/07/31 08:33:08;;;;;;;4.78;4.30;;;;;;;;;;4955727;29;20202;-74
2022/07/31 08:35:37;;;;;;;4.90;4.40;;;;;;;;;;4955830;29;20226;-74
2022/07/31 08:38:04;;;;;;;4.85;4.25;;;;;;;;;;4955521;29;20289;-74
2022/07/31 08:40:31;;;;;;;5.22;4.55;;;;;;;;;;4955700;29;20667;-74
2022/07/31 08:42:58;;;;;;;5.15;3.90;;;;;;;;;;4955117;29;20286;-73
2022/07/31 08:45:26;;;;;;;4.57;4.15;;;;;;;;;;4955415;29;20245;-74
2022/07/31 08:47:53;;;;;;;5.18;4.35;;;;;;;;;;4955611;29;20234;-74
2022/07/31 08:50:21;;;;;;;4.68;4.07;;;;;;;;;;4955416;29;20262;-74
2022/07/31 08:52:53;;;;;;;4.63;4.05;;;;;;;;;;4955416;29;20203;-74
2022/07/31 08:55:22;;;;;;;4.72;4.32;;;;;;;;;;4955411;29;20206;-73
2022/07/31 08:57:49;;;;;;;4.25;3.85;;;;;;;;;;4956705;28;20314;-74
2022/07/31 09:00:18;;;;;;;4.80;3.90;;;;;;;;;;4964688;28;20262;-74
2022/07/31 09:02:45;;;;;;;5.43;4.22;;;;;;;;;;4955075;28;20286;-74
2022/07/31 09:05:13;;;;;;;5.03;4.10;;;;;;;;;;4970178;28;20203;-74
2022/07/31 09:07:40;;;;;;;4.60;3.70;;;;;;;;;;4955267;29;20207;-74
2022/07/31 09:10:22;;;;;;;4.60;4.03;;;;;;;;;;4954938;29;20322;-75
2022/07/31 09:12:49;;;;;;;4.55;3.80;;;;;;;;;;4954832;28;20249;-74
2022/07/31 09:15:20;;;;;;;6.88;4.03;;;;;;;;;;4954757;29;20242;-73
2022/07/31 09:17:47;;;;;;;4.53;4.13;;;;;;;;;;4954814;29;20207;-74
2022/07/31 09:20:17;;;;;;;4.75;4.28;;;;;;;;;;4954825;29;20690;-74
2022/07/31 09:22:44;;;;;;;4.30;3.90;;;;;;;;;;4954675;28;20245;-74
2022/07/31 09:25:14;;;;;;;4.50;3.92;;;;;;;;;;4955036;29;20203;-74
2022/07/31 09:27:44;;;;;;;5.18;3.80;;;;;;;;;;4954392;28;20199;-74
2022/07/31 09:30:11;;;;;;;3.90;3.55;;;;;;;;;;4954793;29;20254;-74
2022/07/31 09:32:38;;;;;;;5.38;3.97;;;;;;;;;;4954739;29;20698;-74
2022/07/31 09:35:10;;;;;;;4.65;3.30;;;;;;;;;;4954847;29;20211;-74
2022/07/31 09:37:38;;;;;;;4.10;3.70;;;;;;;;;;4954532;29;20274;-74
2022/07/31 09:40:06;;;;;;;4.03;3.50;;;;;;;;;;4954475;28;20290;-74
2022/07/31 09:42:37;;;;;;;4.30;3.88;;;;;;;;;;4953857;28;20210;-74
2022/07/31 09:45:17;;;;;;;4.90;3.88;;;;;;;;;;4954156;28;20253;-74
2022/07/31 09:47:44;;;;;;;4.68;4.28;;;;;;;;;;4954569;28;20221;-74
2022/07/31 09:50:11;;;;;;;3.95;3.65;;;;;;;;;;4954491;28;20254;-74
2022/07/31 09:52:39;;;;;;;4.40;4.00;;;;;;;;;;4954455;29;20234;-75
2022/07/31 09:55:07;;;;;;;4.28;3.92;;;;;;;;;;4954494;29;20820;-75
2022/07/31 09:57:36;;;;;;;4.45;3.75;;;;;;;;;;4953841;28;20707;-75
2022/07/31 10:00:06;;;;;;;5.55;4.43;;;;;;;;;;4943128;29;20226;-75
2022/07/31 10:02:34;;;;;;;5.57;5.07;;;;;;;;;;4954524;29;20256;-75
2022/07/31 10:05:01;;;;;;;7.13;4.03;;;;;;;;;;4954733;29;20245;-74
2022/07/31 10:07:34;;;;;;;3.83;3.53;;;;;;;;;;4954835;29;20254;-75
2022/07/31 10:10:01;;;;;;;4.72;3.80;;;;;;;;;;4954004;29;20207;-75
2022/07/31 10:12:30;;;;;;;4.60;4.10;;;;;;;;;;4954241;29;20259;-74
2022/07/31 10:14:59;;;;;;;4.57;4.00;;;;;;;;;;4954394;29;20203;-74
2022/07/31 10:17:30;;;;;;;3.92;3.63;;;;;;;;;;4954439;29;20246;-74
2022/07/31 10:19:59;;;;;;;4.18;3.83;;;;;;;;;;4954541;29;20199;-74
2022/07/31 10:22:28;;;;;;;4.15;3.75;;;;;;;;;;4954308;29;20563;-74
2022/07/31 10:24:59;;;;;;;4.18;3.85;;;;;;;;;;4953877;29;20285;-73
2022/07/31 10:27:26;;;;;;;3.80;3.50;;;;;;;;;;4954272;29;20211;-74
2022/07/31 10:29:54;;;;;;;4.70;3.70;;;;;;;;;;4954115;29;20203;-74
2022/07/31 10:32:21;;;;;;;4.13;3.72;;;;;;;;;;4954325;29;20774;-75
2022/07/31 10:34:50;;;;;;;4.07;3.60;;;;;;;;;;4954208;29;20295;-74
2022/07/31 10:37:21;;;;;;;4.03;3.72;;;;;;;;;;4954447;29;20239;-75
2022/07/31 10:39:51;;;;;;;3.65;3.35;;;;;;;;;;4954100;29;20199;-75
2022/07/31 10:42:27;;;;;;;4.00;3.60;;;;;;;;;;4954256;29;20670;-74
2022/07/31 10:44:56;;;;;;;4.47;3.83;;;;;;;;;;4954065;29;20207;-74
2022/07/31 10:47:24;;;;;;;4.30;3.90;;;;;;;;;;4953918;29;20785;-74
2022/07/31 10:49:53;;;;;;;4.82;3.67;;;;;;;;;;4953960;29;20243;-74
2022/07/31 10:52:27;;;;;;;3.80;3.47;;;;;;;;;;4953912;28;20314;-74
2022/07/31 10:54:57;;;;;;;4.47;3.35;;;;;;;;;;4957548;29;20203;-74
2022/07/31 10:57:26;;;;;;;3.85;3.55;;;;;;;;;;4957316;29;20227;-75
2022/07/31 10:59:53;;;;;;;4.28;3.65;;;;;;;;;;4957109;29;20329;-74
2022/07/31 11:02:30;;;;;;;4.05;3.40;;;;;;;;;;4957393;29;20702;-73
2022/07/31 11:05:09;;;;;;;3.90;3.50;;;;;;;;;;4957223;29;20249;-74
2022/07/31 11:07:36;;;;;;;4.07;3.22;;;;;;;;;;4957749;29;20206;-74
2022/07/31 11:10:14;;;;;;;3.80;3.50;;;;;;;;;;4957052;29;20208;-74
2022/07/31 11:12:41;;;;;;;4.03;3.63;;;;;;;;;;4957190;29;20237;-75
2022/07/31 11:15:18;;;;;;;4.80;3.83;;;;;;;;;;4957076;29;20246;-74
2022/07/31 11:17:45;;;;;;;6.07;4.80;;;;;;;;;;4957277;29;20304;-74
2022/07/31 11:20:20;;;;;;;3.70;3.40;;;;;;;;;;4956900;29;20663;-74
2022/07/31 11:22:53;;;;;;;3.67;3.38;;;;;;;;;;4956746;29;20297;-75
2022/07/31 11:25:21;;;;;;;5.03;3.40;;;;;;;;;;4956858;29;20626;-74
2022/07/31 11:27:48;;;;;;;3.58;3.33;;;;;;;;;;4957065;29;20209;-74
2022/07/31 11:30:15;;;;;;;3.70;3.40;;;;;;;;;;4957011;29;20238;-75
2022/07/31 11:32:48;;;;;;;4.07;3.67;;;;;;;;;;4957068;29;20234;-75
2022/07/31 11:35:26;;;;;;;3.90;3.60;;;;;;;;;;4957069;29;20293;-74
2022/07/31 11:37:53;;;;;;;4.22;3.35;;;;;;;;;;4956760;29;20290;-75
2022/07/31 11:40:20;;;;;;;4.75;3.78;;;;;;;;;;4956669;29;20653;-75
2022/07/31 11:42:48;;;;;;;4.75;4.25;;;;;;;;;;4956830;29;20301;-74
2022/07/31 11:45:15;;;;;;;4.30;2.90;;;;;;;;;;4956717;29;20205;-75
2022/07/31 11:47:44;;;;;;;3.42;3.10;;;;;;;;;;4956509;29;20242;-75
2022/07/31 11:50:11;;;;;;;3.20;2.92;;;;;;;;;;4956713;29;20577;-75
2022/07/31 11:52:42;;;;;;;3.30;3.03;;;;;;;;;;4956581;29;20548;-75
2022/07/31 11:55:10;;;;;;;3.50;3.20;;;;;;;;;;4956282;29;20670;-75
2022/07/31 11:57:37;;;;;;;4.68;4.15;;;;;;;;;;4956164;29;20266;-75
2022/07/31 12:00:09;;;;;;;3.55;3.22;;;;;;;;;;4956163;29;20238;-74
2022/07/31 12:02:40;;;;;;;3.83;3.45;;;;;;;;;;4956476;29;20675;-75
2022/07/31 12:05:08;;;;;;;4.00;3.47;;;;;;;;;;4955941;28;20675;-74
2022/07/31 12:07:36;;;;;;;4.72;3.60;;;;;;;;;;4956333;29;20617;-75
2022/07/31 12:10:05;;;;;;;4.55;3.33;;;;;;;;;;4956336;29;20202;-73
2022/07/31 12:12:32;;;;;;;3.60;3.30;;;;;;;;;;4956259;29;20257;-74
2022/07/31 12:14:59;;;;;;;3.47;3.00;;;;;;;;;;4956104;29;21524;-74
2022/07/31 12:17:26;;;;;;;4.65;2.97;;;;;;;;;;4956110;29;20245;-75
2022/07/31 12:19:54;;;;;;;3.42;3.13;;;;;;;;;;4956049;29;20198;-75
2022/07/31 12:22:21;;;;;;;5.30;3.10;;;;;;;;;;4955869;29;20258;-75
2022/07/31 12:24:59;;;;;;;3.63;3.00;;;;;;;;;;4955880;29;20297;-75
2022/07/31 12:27:28;;;;;;;3.55;3.22;;;;;;;;;;4955846;29;20655;-75
2022/07/31 12:29:55;;;;;;;3.60;3.30;;;;;;;;;;4956211;29;20230;-75
2022/07/31 12:32:26;;;;;;;3.85;3.22;;;;;;;;;;4955946;29;20262;-75
2022/07/31 12:35:02;;;;;;;3.30;3.00;;;;;;;;;;4955448;29;20234;-76
2022/07/31 12:37:29;;;;;;;6.28;2.95;;;;;;;;;;4955741;29;20578;-73
2022/07/31 12:39:57;;;;;;;3.45;3.17;;;;;;;;;;4955703;29;20207;-73
2022/07/31 12:42:26;;;;;;;3.63;3.08;;;;;;;;;;4955473;29;20241;-75
2022/07/31 12:44:55;;;;;;;3.47;3.17;;;;;;;;;;4955838;29;20249;-72
2022/07/31 12:47:22;;;;;;;4.07;3.15;;;;;;;;;;4955504;29;20286;-75
2022/07/31 12:49:50;;;;;;;3.38;3.15;;;;;;;;;;4955228;29;20735;-74
2022/07/31 12:52:17;;;;;;;3.40;3.10;;;;;;;;;;4955471;29;20234;-72
2022/07/31 12:54:44;;;;;;;3.35;3.05;;;;;;;;;;4955339;29;20199;-75
2022/07/31 12:57:11;;;;;;;3.60;3.30;;;;;;;;;;4955348;29;20294;-75
2022/07/31 12:59:39;;;;;;;3.45;3.10;;;;;;;;;;4955218;29;20270;-75
2022/07/31 13:02:08;;;;;;;3.38;3.08;;;;;;;;;;4955415;29;20204;-74
2022/07/31 13:04:35;;;;;;;3.67;3.38;;;;;;;;;;4955076;29;20231;-75
2022/07/31 13:07:02;;;;;;;3.20;3.00;;;;;;;;;;4955565;29;20211;-74
2022/07/31 13:09:29;;;;;;;3.53;2.92;;;;;;;;;;4954887;29;20238;-75
2022/07/31 13:11:57;;;;;;;4.75;3.30;;;;;;;;;;4955186;29;20310;-74
2022/07/31 13:14:24;;;;;;;3.42;3.22;;;;;;;;;;4955044;29;20293;-75
2022/07/31 13:16:53;;;;;;;3.30;3.00;;;;;;;;;;4954730;28;20290;-74
2022/07/31 13:19:22;;;;;;;3.10;2.90;;;;;;;;;;4954662;29;20209;-74
2022/07/31 13:21:49;;;;;;;3.42;3.15;;;;;;;;;;4954727;29;20231;-75
2022/07/31 13:24:17;;;;;;;3.75;3.45;;;;;;;;;;4954917;29;20207;-74
2022/07/31 13:26:44;;;;;;;3.28;2.97;;;;;;;;;;4954762;29;20198;-74
2022/07/31 13:29:11;;;;;;;3.40;3.10;;;;;;;;;;4954677;29;20667;-75
2022/07/31 13:31:39;;;;;;;3.53;3.22;;;;;;;;;;4954535;29;21220;-75
2022/07/31 13:34:06;;;;;;;3.20;3.00;;;;;;;;;;4954650;29;20234;-74
2022/07/31 13:36:34;;;;;;;3.33;3.03;;;;;;;;;;4954813;29;20245;-75
2022/07/31 13:39:02;;;;;;;3.58;3.25;;;;;;;;;;4954803;29;20211;-75
2022/07/31 13:41:29;;;;;;;3.55;3.33;;;;;;;;;;4954604;29;20294;-75
2022/07/31 13:43:57;;;;;;;3.58;3.28;;;;;;;;;;4954662;29;20294;-74
2022/07/31 13:46:25;;;;;;;3.67;3.33;;;;;;;;;;4954708;29;20207;-74
2022/07/31 13:48:53;;;;;;;3.88;3.28;;;;;;;;;;4954499;29;20273;-74
2022/07/31 13:51:20;;;;;;;3.72;3.42;;;;;;;;;;4954267;29;20991;-75
2022/07/31 13:53:49;;;;;;;3.17;2.83;;;;;;;;;;4954683;29;20622;-75
2022/07/31 13:56:16;;;;;;;4.78;3.40;;;;;;;;;;4954632;29;20218;-75
2022/07/31 13:58:43;;;;;;;3.05;2.85;;;;;;;;;;4963346;28;20742;-74
2022/07/31 14:01:11;;;;;;;3.20;2.90;;;;;;;;;;4973736;28;20265;-74
2022/07/31 14:03:38;;;;;;;3.53;3.22;;;;;;;;;;4973836;28;20237;-75
2022/07/31 14:06:05;;;;;;;3.40;3.00;;;;;;;;;;4973444;28;20293;-75
2022/07/31 14:08:33;;;;;;;3.67;3.38;;;;;;;;;;4974005;28;20285;-74
2022/07/31 14:11:01;;;;;;;3.00;2.80;;;;;;;;;;4973701;28;20293;-75
2022/07/31 14:13:29;;;;;;;3.35;3.05;;;;;;;;;;4973587;28;20242;-75
2022/07/31 14:15:56;;;;;;;4.82;3.20;;;;;;;;;;4973570;28;20599;-75
2022/07/31 14:18:23;;;;;;;3.22;3.00;;;;;;;;;;4973099;28;20244;-75
2022/07/31 14:20:51;;;;;;;3.30;3.00;;;;;;;;;;4973662;28;20202;-75
2022/07/31 14:23:18;;;;;;;3.55;2.92;;;;;;;;;;4973388;28;20234;-75
2022/07/31 14:25:45;;;;;;;3.20;3.00;;;;;;;;;;4973636;28;20285;-74
2022/07/31 14:28:14;;;;;;;3.42;3.13;;;;;;;;;;4974641;28;20199;-75
2022/07/31 14:30:45;;;;;;;4.05;2.90;;;;;;;;;;4977225;28;20297;-74
2022/07/31 14:33:12;;;;;;;3.30;3.00;;;;;;;;;;4977417;28;20308;-75
2022/07/31 14:35:40;;;;;;;3.58;3.10;;;;;;;;;;4977078;28;20261;-74
2022/07/31 14:38:07;;;;;;;3.22;3.03;;;;;;;;;;4977095;28;20713;-74
2022/07/31 14:40:35;;;;;;;3.55;3.25;;;;;;;;;;4977395;28;20209;-75
2022/07/31 14:43:02;;;;;;;3.40;3.10;;;;;;;;;;4976988;28;20233;-75
2022/07/31 14:45:30;;;;;;;4.20;3.35;;;;;;;;;;4976740;28;20470;-75
2022/07/31 14:47:57;;;;;;;3.40;3.10;;;;;;;;;;4977016;28;20294;-75
2022/07/31 14:50:25;;;;;;;4.78;3.35;;;;;;;;;;4976854;28;20289;-74